sensor_id;sensor_type;location;lat;lon;timestamp;P1;durP1;ratioP1;P2;durP2;ratioP2
58472;SDS011;44775;51.564;5.460;2022-11-04T00:01:40;2.08;;;1.77;;
58472;SDS011;44775;51.564;5.460;2022-11-04T00:04:07;1.85;;;1.65;;
58472;SDS011;44775;51.564;5.460;2022-11-04T00:06:34;1.85;;;1.40;;
58472;SDS011;44775;51.564;5.460;2022-11-04T00:09:00;3.33;;;1.92;;
58472;SDS011;44775;51.564;5.460;2022-11-04T00:11:26;1.83;;;1.70;;
58472;SDS011;44775;51.564;5.460;2022-11-04T00:14:10;2.42;;;1.92;;
58472;SDS011;44775;51.564;5.460;2022-11-04T00:16:37;3.13;;;2.47;;
58472;SDS011;44775;51.564;5.460;2022-11-04T00:19:22;4.25;;;2.25;;
58472;SDS011;44775;51.564;5.460;2022-11-04T00:21:48;3.05;;;2.40;;
58472;SDS011;44775;51.564;5.460;2022-11-04T00:24:32;5.93;;;4.47;;
58472;SDS011;44775;51.564;5.460;2022-11-04T00:29:57;10.48;;;8.93;;
58472;SDS011;44775;51.564;5.460;2022-11-04T00:32:22;12.35;;;8.40;;
58472;SDS011;44775;51.564;5.460;2022-11-04T00:35:07;10.55;;;6.97;;
58472;SDS011;44775;51.564;5.460;2022-11-04T00:37:40;12.63;;;8.27;;
58472;SDS011;44775;51.564;5.460;2022-11-04T00:40:07;11.65;;;8.70;;
58472;SDS011;44775;51.564;5.460;2022-11-04T00:42:34;11.40;;;9.70;;
58472;SDS011;44775;51.564;5.460;2022-11-04T00:45:00;15.55;;;10.73;;
58472;SDS011;44775;51.564;5.460;2022-11-04T00:47:26;15.95;;;11.65;;
58472;SDS011;44775;51.564;5.460;2022-11-04T00:49:51;14.15;;;10.07;;
58472;SDS011;44775;51.564;5.460;2022-11-04T00:52:17;18.80;;;13.63;;
58472;SDS011;44775;51.564;5.460;2022-11-04T00:54:42;17.85;;;13.93;;
58472;SDS011;44775;51.564;5.460;2022-11-04T00:57:08;20.70;;;14.40;;
58472;SDS011;44775;51.564;5.460;2022-11-04T00:59:34;19.88;;;14.23;;
58472;SDS011;44775;51.564;5.460;2022-11-04T01:02:00;19.27;;;12.52;;
58472;SDS011;44775;51.564;5.460;2022-11-04T01:04:25;17.55;;;13.38;;
58472;SDS011;44775;51.564;5.460;2022-11-04T01:06:51;19.80;;;13.93;;
58472;SDS011;44775;51.564;5.460;2022-11-04T01:09:16;17.15;;;11.25;;
58472;SDS011;44775;51.564;5.460;2022-11-04T01:11:42;18.23;;;13.52;;
58472;SDS011;44775;51.564;5.460;2022-11-04T01:14:07;14.70;;;11.98;;
58472;SDS011;44775;51.564;5.460;2022-11-04T01:16:33;19.23;;;14.07;;
58472;SDS011;44775;51.564;5.460;2022-11-04T01:18:59;19.60;;;13.43;;
58472;SDS011;44775;51.564;5.460;2022-11-04T01:21:24;17.30;;;12.45;;
58472;SDS011;44775;51.564;5.460;2022-11-04T01:23:50;21.38;;;12.35;;
58472;SDS011;44775;51.564;5.460;2022-11-04T01:26:17;16.88;;;12.55;;
58472;SDS011;44775;51.564;5.460;2022-11-04T01:28:43;19.77;;;13.68;;
58472;SDS011;44775;51.564;5.460;2022-11-04T01:31:19;20.15;;;13.65;;
58472;SDS011;44775;51.564;5.460;2022-11-04T01:33:46;19.50;;;13.45;;
58472;SDS011;44775;51.564;5.460;2022-11-04T01:36:13;18.48;;;12.38;;
58472;SDS011;44775;51.564;5.460;2022-11-04T01:38:39;16.05;;;12.25;;
58472;SDS011;44775;51.564;5.460;2022-11-04T01:41:04;19.42;;;13.65;;
58472;SDS011;44775;51.564;5.460;2022-11-04T01:48:55;20.63;;;12.50;;
58472;SDS011;44775;51.564;5.460;2022-11-04T01:51:25;16.90;;;12.43;;
58472;SDS011;44775;51.564;5.460;2022-11-04T01:53:55;17.63;;;11.77;;
58472;SDS011;44775;51.564;5.460;2022-11-04T01:56:20;19.10;;;11.05;;
58472;SDS011;44775;51.564;5.460;2022-11-04T01:58:51;17.40;;;10.15;;
58472;SDS011;44775;51.564;5.460;2022-11-04T02:01:19;15.73;;;10.15;;
58472;SDS011;44775;51.564;5.460;2022-11-04T02:03:48;15.38;;;9.60;;
58472;SDS011;44775;51.564;5.460;2022-11-04T02:06:17;15.23;;;8.80;;
58472;SDS011;44775;51.564;5.460;2022-11-04T02:08:45;17.95;;;9.15;;
58472;SDS011;44775;51.564;5.460;2022-11-04T02:11:11;13.23;;;8.43;;
58472;SDS011;44775;51.564;5.460;2022-11-04T02:13:57;14.18;;;8.80;;
58472;SDS011;44775;51.564;5.460;2022-11-04T02:16:33;14.98;;;8.35;;
58472;SDS011;44775;51.564;5.460;2022-11-04T02:19:22;15.77;;;7.93;;
58472;SDS011;44775;51.564;5.460;2022-11-04T02:22:03;12.40;;;6.85;;
58472;SDS011;44775;51.564;5.460;2022-11-04T02:27:24;12.30;;;7.05;;
58472;SDS011;44775;51.564;5.460;2022-11-04T02:30:03;14.20;;;7.60;;
58472;SDS011;44775;51.564;5.460;2022-11-04T02:42:54;11.68;;;6.30;;
58472;SDS011;44775;51.564;5.460;2022-11-04T02:45:38;12.02;;;6.10;;
58472;SDS011;44775;51.564;5.460;2022-11-04T02:48:08;11.05;;;6.05;;
58472;SDS011;44775;51.564;5.460;2022-11-04T02:50:48;14.02;;;5.80;;
58472;SDS011;44775;51.564;5.460;2022-11-04T02:53:26;11.38;;;6.30;;
58472;SDS011;44775;51.564;5.460;2022-11-04T02:58:24;9.45;;;4.93;;
58472;SDS011;44775;51.564;5.460;2022-11-04T03:00:55;9.65;;;4.90;;
58472;SDS011;44775;51.564;5.460;2022-11-04T03:03:26;10.60;;;5.10;;
58472;SDS011;44775;51.564;5.460;2022-11-04T03:05:56;10.23;;;4.78;;
58472;SDS011;44775;51.564;5.460;2022-11-04T03:08:26;7.38;;;3.92;;
58472;SDS011;44775;51.564;5.460;2022-11-04T03:11:00;11.00;;;4.50;;
58472;SDS011;44775;51.564;5.460;2022-11-04T03:13:46;8.65;;;4.00;;
58472;SDS011;44775;51.564;5.460;2022-11-04T03:16:17;9.13;;;4.40;;
58472;SDS011;44775;51.564;5.460;2022-11-04T03:19:02;8.85;;;4.50;;
58472;SDS011;44775;51.564;5.460;2022-11-04T03:21:32;10.18;;;4.80;;
58472;SDS011;44775;51.564;5.460;2022-11-04T03:24:01;9.40;;;4.30;;
58472;SDS011;44775;51.564;5.460;2022-11-04T03:26:31;9.32;;;4.53;;
58472;SDS011;44775;51.564;5.460;2022-11-04T03:32:21;10.45;;;4.25;;
58472;SDS011;44775;51.564;5.460;2022-11-04T03:35:04;10.32;;;4.47;;
58472;SDS011;44775;51.564;5.460;2022-11-04T03:37:31;8.93;;;4.30;;
58472;SDS011;44775;51.564;5.460;2022-11-04T03:39:57;10.77;;;4.38;;
58472;SDS011;44775;51.564;5.460;2022-11-04T03:42:23;10.15;;;4.10;;
58472;SDS011;44775;51.564;5.460;2022-11-04T03:44:52;13.90;;;4.47;;
58472;SDS011;44775;51.564;5.460;2022-11-04T03:47:20;9.05;;;4.03;;
58472;SDS011;44775;51.564;5.460;2022-11-04T03:52:15;8.30;;;4.30;;
58472;SDS011;44775;51.564;5.460;2022-11-04T03:54:41;11.70;;;4.13;;
58472;SDS011;44775;51.564;5.460;2022-11-04T04:05:36;9.77;;;4.40;;
58472;SDS011;44775;51.564;5.460;2022-11-04T04:08:09;14.10;;;4.20;;
58472;SDS011;44775;51.564;5.460;2022-11-04T04:16:31;9.30;;;4.10;;
58472;SDS011;44775;51.564;5.460;2022-11-04T04:19:01;10.73;;;4.13;;
58472;SDS011;44775;51.564;5.460;2022-11-04T04:21:38;9.73;;;4.15;;
58472;SDS011;44775;51.564;5.460;2022-11-04T04:24:10;13.20;;;4.20;;
58472;SDS011;44775;51.564;5.460;2022-11-04T04:26:58;13.82;;;4.47;;
58472;SDS011;44775;51.564;5.460;2022-11-04T04:29:43;10.85;;;4.65;;
58472;SDS011;44775;51.564;5.460;2022-11-04T04:32:10;11.75;;;4.43;;
58472;SDS011;44775;51.564;5.460;2022-11-04T04:34:37;9.77;;;4.57;;
58472;SDS011;44775;51.564;5.460;2022-11-04T04:39:37;12.77;;;4.70;;
58472;SDS011;44775;51.564;5.460;2022-11-04T04:42:29;17.90;;;5.85;;
58472;SDS011;44775;51.564;5.460;2022-11-04T04:45:18;11.40;;;5.63;;
58472;SDS011;44775;51.564;5.460;2022-11-04T04:47:46;13.93;;;5.78;;
58472;SDS011;44775;51.564;5.460;2022-11-04T04:50:13;12.45;;;6.10;;
58472;SDS011;44775;51.564;5.460;2022-11-04T04:55:08;18.63;;;7.00;;
58472;SDS011;44775;51.564;5.460;2022-11-04T04:57:34;18.73;;;6.78;;
58472;SDS011;44775;51.564;5.460;2022-11-04T04:59:59;18.55;;;7.45;;
58472;SDS011;44775;51.564;5.460;2022-11-04T05:02:25;18.42;;;8.25;;
58472;SDS011;44775;51.564;5.460;2022-11-04T05:04:51;17.77;;;8.18;;
58472;SDS011;44775;51.564;5.460;2022-11-04T05:07:16;21.30;;;8.60;;
58472;SDS011;44775;51.564;5.460;2022-11-04T05:09:41;19.35;;;9.75;;
58472;SDS011;44775;51.564;5.460;2022-11-04T05:12:07;19.67;;;9.40;;
58472;SDS011;44775;51.564;5.460;2022-11-04T05:14:34;26.73;;;10.00;;
58472;SDS011;44775;51.564;5.460;2022-11-04T05:16:59;24.95;;;10.13;;
58472;SDS011;44775;51.564;5.460;2022-11-04T05:19:25;24.83;;;10.05;;
58472;SDS011;44775;51.564;5.460;2022-11-04T05:21:50;21.90;;;10.00;;
58472;SDS011;44775;51.564;5.460;2022-11-04T05:24:15;24.35;;;9.10;;
58472;SDS011;44775;51.564;5.460;2022-11-04T05:26:41;25.98;;;9.57;;
58472;SDS011;44775;51.564;5.460;2022-11-04T05:29:07;24.77;;;9.63;;
58472;SDS011;44775;51.564;5.460;2022-11-04T05:31:33;20.92;;;9.30;;
58472;SDS011;44775;51.564;5.460;2022-11-04T05:33:58;21.38;;;9.38;;
58472;SDS011;44775;51.564;5.460;2022-11-04T05:36:24;25.40;;;10.13;;
58472;SDS011;44775;51.564;5.460;2022-11-04T05:38:50;23.65;;;9.40;;
58472;SDS011;44775;51.564;5.460;2022-11-04T05:41:17;23.30;;;8.90;;
58472;SDS011;44775;51.564;5.460;2022-11-04T05:43:53;22.48;;;9.25;;
58472;SDS011;44775;51.564;5.460;2022-11-04T05:46:20;21.58;;;9.45;;
58472;SDS011;44775;51.564;5.460;2022-11-04T05:48:46;24.65;;;9.45;;
58472;SDS011;44775;51.564;5.460;2022-11-04T05:51:15;20.10;;;9.52;;
58472;SDS011;44775;51.564;5.460;2022-11-04T05:53:42;24.63;;;9.68;;
58472;SDS011;44775;51.564;5.460;2022-11-04T05:56:07;19.02;;;9.45;;
58472;SDS011;44775;51.564;5.460;2022-11-04T05:58:33;27.65;;;9.82;;
58472;SDS011;44775;51.564;5.460;2022-11-04T06:03:37;23.80;;;9.18;;
58472;SDS011;44775;51.564;5.460;2022-11-04T06:06:03;20.38;;;9.18;;
58472;SDS011;44775;51.564;5.460;2022-11-04T06:08:28;23.25;;;9.13;;
58472;SDS011;44775;51.564;5.460;2022-11-04T06:10:55;24.15;;;9.73;;
58472;SDS011;44775;51.564;5.460;2022-11-04T06:13:21;18.52;;;9.80;;
58472;SDS011;44775;51.564;5.460;2022-11-04T06:15:46;23.80;;;9.35;;
58472;SDS011;44775;51.564;5.460;2022-11-04T06:18:12;21.33;;;9.88;;
58472;SDS011;44775;51.564;5.460;2022-11-04T06:20:37;21.08;;;9.10;;
58472;SDS011;44775;51.564;5.460;2022-11-04T06:23:02;20.80;;;9.35;;
58472;SDS011;44775;51.564;5.460;2022-11-04T06:25:28;16.67;;;9.05;;
58472;SDS011;44775;51.564;5.460;2022-11-04T06:27:54;17.25;;;8.95;;
58472;SDS011;44775;51.564;5.460;2022-11-04T06:30:19;18.63;;;9.30;;
58472;SDS011;44775;51.564;5.460;2022-11-04T06:32:45;16.02;;;9.02;;
58472;SDS011;44775;51.564;5.460;2022-11-04T06:35:11;16.88;;;8.32;;
58472;SDS011;44775;51.564;5.460;2022-11-04T06:37:37;19.90;;;8.70;;
58472;SDS011;44775;51.564;5.460;2022-11-04T06:40:03;17.60;;;8.32;;
58472;SDS011;44775;51.564;5.460;2022-11-04T06:42:28;17.58;;;8.20;;
58472;SDS011;44775;51.564;5.460;2022-11-04T06:44:54;16.65;;;7.97;;
58472;SDS011;44775;51.564;5.460;2022-11-04T06:47:19;20.42;;;8.38;;
58472;SDS011;44775;51.564;5.460;2022-11-04T06:49:44;19.13;;;8.00;;
58472;SDS011;44775;51.564;5.460;2022-11-04T06:52:10;21.70;;;8.40;;
58472;SDS011;44775;51.564;5.460;2022-11-04T06:54:35;19.25;;;8.07;;
58472;SDS011;44775;51.564;5.460;2022-11-04T06:57:01;17.83;;;7.78;;
58472;SDS011;44775;51.564;5.460;2022-11-04T06:59:27;16.58;;;7.95;;
58472;SDS011;44775;51.564;5.460;2022-11-04T07:01:52;19.92;;;7.72;;
58472;SDS011;44775;51.564;5.460;2022-11-04T07:04:18;22.80;;;8.63;;
58472;SDS011;44775;51.564;5.460;2022-11-04T07:06:43;23.80;;;8.48;;
58472;SDS011;44775;51.564;5.460;2022-11-04T07:09:09;16.45;;;7.32;;
58472;SDS011;44775;51.564;5.460;2022-11-04T07:11:39;15.38;;;8.07;;
58472;SDS011;44775;51.564;5.460;2022-11-04T07:14:06;19.90;;;8.48;;
58472;SDS011;44775;51.564;5.460;2022-11-04T07:16:33;13.85;;;7.68;;
58472;SDS011;44775;51.564;5.460;2022-11-04T07:18:58;15.05;;;8.00;;
58472;SDS011;44775;51.564;5.460;2022-11-04T07:21:24;13.45;;;8.02;;
58472;SDS011;44775;51.564;5.460;2022-11-04T07:23:49;20.90;;;8.10;;
58472;SDS011;44775;51.564;5.460;2022-11-04T07:26:15;17.55;;;7.63;;
58472;SDS011;44775;51.564;5.460;2022-11-04T07:28:40;16.23;;;7.57;;
58472;SDS011;44775;51.564;5.460;2022-11-04T07:31:06;19.25;;;7.25;;
58472;SDS011;44775;51.564;5.460;2022-11-04T07:33:33;15.02;;;7.05;;
58472;SDS011;44775;51.564;5.460;2022-11-04T07:36:09;19.48;;;7.43;;
58472;SDS011;44775;51.564;5.460;2022-11-04T07:38:37;20.13;;;7.10;;
58472;SDS011;44775;51.564;5.460;2022-11-04T07:41:03;17.90;;;7.28;;
58472;SDS011;44775;51.564;5.460;2022-11-04T07:43:29;14.70;;;7.22;;
58472;SDS011;44775;51.564;5.460;2022-11-04T07:46:04;14.15;;;6.55;;
58472;SDS011;44775;51.564;5.460;2022-11-04T07:48:37;15.98;;;7.53;;
58472;SDS011;44775;51.564;5.460;2022-11-04T07:51:03;17.00;;;7.57;;
58472;SDS011;44775;51.564;5.460;2022-11-04T07:53:30;16.92;;;7.88;;
58472;SDS011;44775;51.564;5.460;2022-11-04T07:55:56;15.20;;;7.78;;
58472;SDS011;44775;51.564;5.460;2022-11-04T07:58:23;18.02;;;8.23;;
58472;SDS011;44775;51.564;5.460;2022-11-04T08:00:49;15.93;;;7.78;;
58472;SDS011;44775;51.564;5.460;2022-11-04T08:03:15;15.52;;;7.72;;
58472;SDS011;44775;51.564;5.460;2022-11-04T08:05:41;18.52;;;7.82;;
58472;SDS011;44775;51.564;5.460;2022-11-04T08:08:06;15.95;;;8.65;;
58472;SDS011;44775;51.564;5.460;2022-11-04T08:10:32;18.70;;;8.80;;
58472;SDS011;44775;51.564;5.460;2022-11-04T08:12:58;12.95;;;7.97;;
58472;SDS011;44775;51.564;5.460;2022-11-04T08:15:23;13.90;;;8.20;;
58472;SDS011;44775;51.564;5.460;2022-11-04T08:17:49;16.00;;;7.78;;
58472;SDS011;44775;51.564;5.460;2022-11-04T08:20:14;17.25;;;7.93;;
58472;SDS011;44775;51.564;5.460;2022-11-04T08:22:40;15.98;;;7.80;;
58472;SDS011;44775;51.564;5.460;2022-11-04T08:25:05;14.07;;;7.50;;
58472;SDS011;44775;51.564;5.460;2022-11-04T08:27:31;12.05;;;7.50;;
58472;SDS011;44775;51.564;5.460;2022-11-04T08:29:58;14.90;;;7.72;;
58472;SDS011;44775;51.564;5.460;2022-11-04T08:32:23;16.25;;;8.07;;
58472;SDS011;44775;51.564;5.460;2022-11-04T08:34:49;11.85;;;6.50;;
58472;SDS011;44775;51.564;5.460;2022-11-04T08:37:15;16.35;;;6.93;;
58472;SDS011;44775;51.564;5.460;2022-11-04T08:39:41;12.50;;;6.10;;
58472;SDS011;44775;51.564;5.460;2022-11-04T08:42:07;13.25;;;5.88;;
58472;SDS011;44775;51.564;5.460;2022-11-04T08:44:33;10.27;;;5.70;;
58472;SDS011;44775;51.564;5.460;2022-11-04T08:46:59;12.60;;;5.70;;
58472;SDS011;44775;51.564;5.460;2022-11-04T08:49:25;13.18;;;6.22;;
58472;SDS011;44775;51.564;5.460;2022-11-04T08:51:50;14.25;;;5.40;;
58472;SDS011;44775;51.564;5.460;2022-11-04T08:54:24;16.55;;;5.85;;
58472;SDS011;44775;51.564;5.460;2022-11-04T08:56:51;18.30;;;7.80;;
58472;SDS011;44775;51.564;5.460;2022-11-04T08:59:16;22.48;;;8.27;;
58472;SDS011;44775;51.564;5.460;2022-11-04T09:01:42;12.48;;;5.68;;
58472;SDS011;44775;51.564;5.460;2022-11-04T09:04:09;16.95;;;5.60;;
58472;SDS011;44775;51.564;5.460;2022-11-04T09:06:37;13.20;;;5.82;;
58472;SDS011;44775;51.564;5.460;2022-11-04T09:09:07;12.50;;;5.60;;
58472;SDS011;44775;51.564;5.460;2022-11-04T09:11:36;12.73;;;5.38;;
58472;SDS011;44775;51.564;5.460;2022-11-04T09:14:02;11.93;;;5.70;;
58472;SDS011;44775;51.564;5.460;2022-11-04T09:16:29;16.05;;;7.05;;
58472;SDS011;44775;51.564;5.460;2022-11-04T09:18:57;18.70;;;5.57;;
58472;SDS011;44775;51.564;5.460;2022-11-04T09:21:23;12.82;;;4.97;;
58472;SDS011;44775;51.564;5.460;2022-11-04T09:23:49;11.95;;;5.20;;
58472;SDS011;44775;51.564;5.460;2022-11-04T09:26:15;15.88;;;6.40;;
58472;SDS011;44775;51.564;5.460;2022-11-04T09:28:42;14.57;;;6.43;;
58472;SDS011;44775;51.564;5.460;2022-11-04T09:31:08;15.02;;;7.50;;
58472;SDS011;44775;51.564;5.460;2022-11-04T09:33:36;13.82;;;6.07;;
58472;SDS011;44775;51.564;5.460;2022-11-04T09:36:01;10.85;;;5.90;;
58472;SDS011;44775;51.564;5.460;2022-11-04T09:38:27;14.23;;;5.75;;
58472;SDS011;44775;51.564;5.460;2022-11-04T09:40:53;12.80;;;6.18;;
58472;SDS011;44775;51.564;5.460;2022-11-04T09:45:53;17.48;;;7.05;;
58472;SDS011;44775;51.564;5.460;2022-11-04T09:48:27;16.42;;;6.82;;
58472;SDS011;44775;51.564;5.460;2022-11-04T09:50:58;17.80;;;7.47;;
58472;SDS011;44775;51.564;5.460;2022-11-04T09:53:34;11.85;;;7.00;;
58472;SDS011;44775;51.564;5.460;2022-11-04T09:56:09;16.77;;;7.07;;
58472;SDS011;44775;51.564;5.460;2022-11-04T09:58:42;12.95;;;6.80;;
58472;SDS011;44775;51.564;5.460;2022-11-04T10:11:48;11.48;;;5.55;;
58472;SDS011;44775;51.564;5.460;2022-11-04T10:14:27;14.70;;;6.10;;
58472;SDS011;44775;51.564;5.460;2022-11-04T10:17:07;14.13;;;6.82;;
58472;SDS011;44775;51.564;5.460;2022-11-04T10:22:44;14.82;;;6.03;;
58472;SDS011;44775;51.564;5.460;2022-11-04T10:25:27;11.25;;;6.00;;
58472;SDS011;44775;51.564;5.460;2022-11-04T10:28:02;15.93;;;6.43;;
58472;SDS011;44775;51.564;5.460;2022-11-04T10:30:29;10.43;;;5.90;;
58472;SDS011;44775;51.564;5.460;2022-11-04T10:38:12;13.20;;;5.93;;
58472;SDS011;44775;51.564;5.460;2022-11-04T10:40:42;14.70;;;6.00;;
58472;SDS011;44775;51.564;5.460;2022-11-04T10:43:12;12.60;;;7.68;;
58472;SDS011;44775;51.564;5.460;2022-11-04T10:45:51;15.93;;;9.55;;
58472;SDS011;44775;51.564;5.460;2022-11-04T10:48:41;15.93;;;9.05;;
58472;SDS011;44775;51.564;5.460;2022-11-04T10:51:13;18.02;;;8.25;;
58472;SDS011;44775;51.564;5.460;2022-11-04T10:53:45;17.10;;;7.53;;
58472;SDS011;44775;51.564;5.460;2022-11-04T11:01:51;12.00;;;7.25;;
58472;SDS011;44775;51.564;5.460;2022-11-04T11:04:31;12.38;;;7.28;;
58472;SDS011;44775;51.564;5.460;2022-11-04T11:07:04;13.63;;;6.65;;
58472;SDS011;44775;51.564;5.460;2022-11-04T11:14:38;12.25;;;7.10;;
58472;SDS011;44775;51.564;5.460;2022-11-04T11:17:21;11.88;;;6.53;;
58472;SDS011;44775;51.564;5.460;2022-11-04T11:22:42;12.25;;;6.60;;
58472;SDS011;44775;51.564;5.460;2022-11-04T11:27:55;9.98;;;5.35;;
58472;SDS011;44775;51.564;5.460;2022-11-04T11:33:13;10.82;;;6.13;;
58472;SDS011;44775;51.564;5.460;2022-11-04T11:35:52;15.77;;;6.28;;
58472;SDS011;44775;51.564;5.460;2022-11-04T11:38:28;10.77;;;5.50;;
58472;SDS011;44775;51.564;5.460;2022-11-04T11:41:02;9.98;;;5.82;;
58472;SDS011;44775;51.564;5.460;2022-11-04T11:43:41;10.65;;;5.43;;
58472;SDS011;44775;51.564;5.460;2022-11-04T11:46:10;10.20;;;5.35;;
58472;SDS011;44775;51.564;5.460;2022-11-04T11:48:48;10.52;;;5.38;;
58472;SDS011;44775;51.564;5.460;2022-11-04T11:56:34;11.68;;;5.97;;
58472;SDS011;44775;51.564;5.460;2022-11-04T11:59:31;11.95;;;6.13;;
58472;SDS011;44775;51.564;5.460;2022-11-04T12:04:58;11.98;;;6.68;;
58472;SDS011;44775;51.564;5.460;2022-11-04T12:13:10;10.77;;;7.10;;
58472;SDS011;44775;51.564;5.460;2022-11-04T12:21:12;13.95;;;7.25;;
58472;SDS011;44775;51.564;5.460;2022-11-04T12:23:51;14.13;;;7.50;;
58472;SDS011;44775;51.564;5.460;2022-11-04T12:26:32;13.00;;;7.57;;
58472;SDS011;44775;51.564;5.460;2022-11-04T12:31:58;11.55;;;5.75;;
58472;SDS011;44775;51.564;5.460;2022-11-04T12:34:45;10.15;;;5.80;;
58472;SDS011;44775;51.564;5.460;2022-11-04T12:37:22;10.13;;;6.80;;
58472;SDS011;44775;51.564;5.460;2022-11-04T12:42:48;12.70;;;7.03;;
58472;SDS011;44775;51.564;5.460;2022-11-04T12:47:58;11.02;;;6.40;;
58472;SDS011;44775;51.564;5.460;2022-11-04T12:50:42;11.30;;;5.18;;
58472;SDS011;44775;51.564;5.460;2022-11-04T12:56:10;13.88;;;6.82;;
58472;SDS011;44775;51.564;5.460;2022-11-04T13:01:27;10.95;;;7.18;;
58472;SDS011;44775;51.564;5.460;2022-11-04T13:04:08;12.65;;;6.60;;
58472;SDS011;44775;51.564;5.460;2022-11-04T13:12:12;11.60;;;6.45;;
58472;SDS011;44775;51.564;5.460;2022-11-04T13:17:25;14.82;;;6.72;;
58472;SDS011;44775;51.564;5.460;2022-11-04T13:19:55;18.98;;;6.95;;
58472;SDS011;44775;51.564;5.460;2022-11-04T13:22:25;11.85;;;6.93;;
58472;SDS011;44775;51.564;5.460;2022-11-04T13:25:03;21.45;;;8.38;;
58472;SDS011;44775;51.564;5.460;2022-11-04T13:27:39;15.15;;;8.20;;
58472;SDS011;44775;51.564;5.460;2022-11-04T13:33:00;14.02;;;8.00;;
58472;SDS011;44775;51.564;5.460;2022-11-04T13:35:34;12.70;;;8.15;;
58472;SDS011;44775;51.564;5.460;2022-11-04T13:38:22;16.58;;;8.43;;
58472;SDS011;44775;51.564;5.460;2022-11-04T13:43:31;11.23;;;8.23;;
58472;SDS011;44775;51.564;5.460;2022-11-04T13:49:17;16.17;;;8.90;;
58472;SDS011;44775;51.564;5.460;2022-11-04T13:54:04;14.48;;;9.50;;
58472;SDS011;44775;51.564;5.460;2022-11-04T13:56:38;13.00;;;9.07;;
58472;SDS011;44775;51.564;5.460;2022-11-04T14:04:35;13.05;;;10.60;;
58472;SDS011;44775;51.564;5.460;2022-11-04T14:07:03;15.57;;;10.52;;
58472;SDS011;44775;51.564;5.460;2022-11-04T14:14:54;14.05;;;10.30;;
58472;SDS011;44775;51.564;5.460;2022-11-04T14:22:49;12.00;;;8.45;;
58472;SDS011;44775;51.564;5.460;2022-11-04T14:27:54;13.32;;;8.32;;
58472;SDS011;44775;51.564;5.460;2022-11-04T14:30:29;15.18;;;9.00;;
58472;SDS011;44775;51.564;5.460;2022-11-04T14:33:06;12.48;;;8.85;;
58472;SDS011;44775;51.564;5.460;2022-11-04T14:35:41;14.07;;;9.52;;
58472;SDS011;44775;51.564;5.460;2022-11-04T14:38:18;15.32;;;9.88;;
58472;SDS011;44775;51.564;5.460;2022-11-04T14:43:49;14.20;;;9.68;;
58472;SDS011;44775;51.564;5.460;2022-11-04T14:46:23;14.85;;;9.65;;
58472;SDS011;44775;51.564;5.460;2022-11-04T14:48:56;13.70;;;9.23;;
58472;SDS011;44775;51.564;5.460;2022-11-04T14:51:29;13.20;;;8.90;;
58472;SDS011;44775;51.564;5.460;2022-11-04T14:54:08;13.75;;;9.60;;
58472;SDS011;44775;51.564;5.460;2022-11-04T14:56:41;14.90;;;8.95;;
58472;SDS011;44775;51.564;5.460;2022-11-04T14:59:06;12.93;;;8.30;;
58472;SDS011;44775;51.564;5.460;2022-11-04T15:01:43;11.68;;;8.05;;
58472;SDS011;44775;51.564;5.460;2022-11-04T15:04:25;13.95;;;8.43;;
58472;SDS011;44775;51.564;5.460;2022-11-04T15:06:54;11.15;;;7.20;;
58472;SDS011;44775;51.564;5.460;2022-11-04T15:09:53;11.68;;;6.25;;
58472;SDS011;44775;51.564;5.460;2022-11-04T15:12:15;11.73;;;7.18;;
58472;SDS011;44775;51.564;5.460;2022-11-04T15:15:01;11.82;;;6.47;;
58472;SDS011;44775;51.564;5.460;2022-11-04T15:17:49;12.75;;;6.20;;
58472;SDS011;44775;51.564;5.460;2022-11-04T15:20:22;11.57;;;6.10;;
58472;SDS011;44775;51.564;5.460;2022-11-04T15:22:50;9.40;;;5.25;;
58472;SDS011;44775;51.564;5.460;2022-11-04T15:25:17;7.47;;;5.25;;
58472;SDS011;44775;51.564;5.460;2022-11-04T15:27:43;8.20;;;3.28;;
58472;SDS011;44775;51.564;5.460;2022-11-04T15:30:27;5.95;;;3.03;;
58472;SDS011;44775;51.564;5.460;2022-11-04T15:32:58;5.05;;;2.40;;
58472;SDS011;44775;51.564;5.460;2022-11-04T15:35:26;3.53;;;2.10;;
58472;SDS011;44775;51.564;5.460;2022-11-04T15:40:20;4.03;;;2.00;;
58472;SDS011;44775;51.564;5.460;2022-11-04T15:42:47;4.03;;;2.00;;
58472;SDS011;44775;51.564;5.460;2022-11-04T15:45:25;2.90;;;1.70;;
58472;SDS011;44775;51.564;5.460;2022-11-04T15:53:25;7.38;;;2.50;;
58472;SDS011;44775;51.564;5.460;2022-11-04T15:55:50;4.50;;;2.70;;
58472;SDS011;44775;51.564;5.460;2022-11-04T15:58:16;4.40;;;2.97;;
58472;SDS011;44775;51.564;5.460;2022-11-04T16:00:50;6.10;;;3.10;;
58472;SDS011;44775;51.564;5.460;2022-11-04T16:03:19;5.35;;;3.05;;
58472;SDS011;44775;51.564;5.460;2022-11-04T16:06:04;7.25;;;2.85;;
58472;SDS011;44775;51.564;5.460;2022-11-04T16:08:31;6.13;;;3.03;;
58472;SDS011;44775;51.564;5.460;2022-11-04T16:11:13;4.50;;;2.80;;
58472;SDS011;44775;51.564;5.460;2022-11-04T16:13:41;5.93;;;2.80;;
58472;SDS011;44775;51.564;5.460;2022-11-04T16:16:28;5.45;;;2.90;;
58472;SDS011;44775;51.564;5.460;2022-11-04T16:18:56;6.32;;;3.08;;
58472;SDS011;44775;51.564;5.460;2022-11-04T16:21:26;7.55;;;3.20;;
58472;SDS011;44775;51.564;5.460;2022-11-04T16:23:58;7.90;;;3.30;;
58472;SDS011;44775;51.564;5.460;2022-11-04T16:26:29;5.85;;;3.20;;
58472;SDS011;44775;51.564;5.460;2022-11-04T16:29:05;7.40;;;3.85;;
58472;SDS011;44775;51.564;5.460;2022-11-04T16:31:34;6.18;;;3.55;;
58472;SDS011;44775;51.564;5.460;2022-11-04T16:34:00;5.88;;;3.08;;
58472;SDS011;44775;51.564;5.460;2022-11-04T16:36:26;4.30;;;2.25;;
58472;SDS011;44775;51.564;5.460;2022-11-04T16:41:19;4.20;;;2.63;;
58472;SDS011;44775;51.564;5.460;2022-11-04T16:43:46;3.85;;;2.40;;
58472;SDS011;44775;51.564;5.460;2022-11-04T16:46:13;5.47;;;2.42;;
58472;SDS011;44775;51.564;5.460;2022-11-04T16:48:39;7.22;;;2.67;;
58472;SDS011;44775;51.564;5.460;2022-11-04T16:51:04;5.50;;;2.67;;
58472;SDS011;44775;51.564;5.460;2022-11-04T16:53:30;4.85;;;2.70;;
58472;SDS011;44775;51.564;5.460;2022-11-04T16:55:56;6.18;;;2.78;;
58472;SDS011;44775;51.564;5.460;2022-11-04T16:58:22;5.53;;;2.83;;
58472;SDS011;44775;51.564;5.460;2022-11-04T17:00:48;6.13;;;3.22;;
58472;SDS011;44775;51.564;5.460;2022-11-04T17:03:16;5.78;;;3.40;;
58472;SDS011;44775;51.564;5.460;2022-11-04T17:05:47;6.43;;;3.42;;
58472;SDS011;44775;51.564;5.460;2022-11-04T17:08:14;8.70;;;4.53;;
58472;SDS011;44775;51.564;5.460;2022-11-04T17:10:39;10.10;;;4.93;;
58472;SDS011;44775;51.564;5.460;2022-11-04T17:13:06;9.95;;;4.50;;
58472;SDS011;44775;51.564;5.460;2022-11-04T17:15:32;6.28;;;4.30;;
58472;SDS011;44775;51.564;5.460;2022-11-04T17:17:57;7.05;;;4.10;;
58472;SDS011;44775;51.564;5.460;2022-11-04T17:20:23;7.80;;;4.22;;
58472;SDS011;44775;51.564;5.460;2022-11-04T17:22:48;8.40;;;4.40;;
58472;SDS011;44775;51.564;5.460;2022-11-04T17:25:15;6.85;;;4.50;;
58472;SDS011;44775;51.564;5.460;2022-11-04T17:27:43;7.97;;;4.20;;
58472;SDS011;44775;51.564;5.460;2022-11-04T17:30:09;9.63;;;4.40;;
58472;SDS011;44775;51.564;5.460;2022-11-04T17:32:37;6.63;;;3.80;;
58472;SDS011;44775;51.564;5.460;2022-11-04T17:35:02;6.95;;;3.70;;
58472;SDS011;44775;51.564;5.460;2022-11-04T17:37:28;7.05;;;3.78;;
58472;SDS011;44775;51.564;5.460;2022-11-04T17:39:53;6.80;;;3.90;;
58472;SDS011;44775;51.564;5.460;2022-11-04T17:42:19;6.95;;;4.03;;
58472;SDS011;44775;51.564;5.460;2022-11-04T17:45:03;7.80;;;3.90;;
58472;SDS011;44775;51.564;5.460;2022-11-04T17:47:29;7.95;;;4.47;;
58472;SDS011;44775;51.564;5.460;2022-11-04T17:49:59;6.18;;;4.18;;